createdAt,value
2022-12-26T00:00:37.317Z,10.20
2022-12-26T00:03:04.344Z,10.00
2022-12-26T00:05:36.977Z,10.00
2022-12-26T00:08:04.187Z,10.10
2022-12-26T00:10:31.015Z,10.00
2022-12-26T00:13:39.466Z,10.20
2022-12-26T00:15:44.607Z,10.20
2022-12-26T00:18:11.422Z,10.30
2022-12-26T00:20:38.194Z,10.10
2022-12-26T00:23:05.055Z,10.00
2022-12-26T00:25:34.567Z,10.10
2022-12-26T00:28:01.661Z,10.20
2022-12-26T00:30:28.623Z,10.10
2022-12-26T00:33:00.147Z,10.10
2022-12-26T00:35:27.094Z,9.90
2022-12-26T00:37:53.948Z,9.80
2022-12-26T00:40:20.693Z,9.80
2022-12-26T00:42:47.478Z,9.90
2022-12-26T00:45:14.318Z,10.00
2022-12-26T00:47:41.090Z,10.00
2022-12-26T00:50:11.369Z,10.10
2022-12-26T00:52:41.189Z,9.90
2022-12-26T00:55:08.489Z,9.90
2022-12-26T00:57:35.307Z,10.00
2022-12-26T01:00:02.129Z,10.10
2022-12-26T01:02:37.930Z,10.00
2022-12-26T01:05:07.172Z,9.90
2022-12-26T01:08:20.524Z,9.90
2022-12-26T01:10:23.232Z,10.00
2022-12-26T01:12:50.021Z,10.10
2022-12-26T01:15:16.839Z,10.10
2022-12-26T01:17:43.728Z,10.10
2022-12-26T01:20:11.048Z,10.10
2022-12-26T01:22:37.894Z,10.20
2022-12-26T01:25:05.789Z,10.10
2022-12-26T01:27:32.597Z,10.10
2022-12-26T01:29:59.517Z,10.10
2022-12-26T01:32:26.363Z,10.20
2022-12-26T01:34:55.515Z,10.30
2022-12-26T01:37:23.563Z,10.30
2022-12-26T01:39:52.015Z,10.20
2022-12-26T01:42:24.074Z,10.40
2022-12-26T01:45:18.022Z,10.60
2022-12-26T01:47:53.858Z,10.50
2022-12-26T01:50:30.494Z,10.40
2022-12-26T01:53:03.112Z,10.60
2022-12-26T01:55:32.599Z,10.60
2022-12-26T01:58:09.686Z,10.50
2022-12-26T02:00:38.194Z,10.40
2022-12-26T02:03:26.534Z,10.40
2022-12-26T02:05:56.600Z,10.60
2022-12-26T02:08:29.834Z,10.50
2022-12-26T02:11:12.827Z,10.10
2022-12-26T02:13:40.445Z,10.90
2022-12-26T02:16:11.316Z,11.00
2022-12-26T02:18:38.077Z,10.20
2022-12-26T02:21:32.447Z,10.20
2022-12-26T02:24:36.492Z,10.30
2022-12-26T02:27:32.633Z,10.30
2022-12-26T02:30:37.363Z,10.20
2022-12-26T02:33:06.816Z,10.10
2022-12-26T02:35:52.550Z,10.10
2022-12-26T02:38:46.372Z,10.20
2022-12-26T02:41:39.469Z,10.10
2022-12-26T02:44:39.267Z,10.00
2022-12-26T02:47:19.352Z,10.10
2022-12-26T02:50:29.032Z,10.10
2022-12-26T02:53:28.216Z,10.10
2022-12-26T02:56:23.943Z,10.00
2022-12-26T02:59:17.501Z,10.10
2022-12-26T03:02:09.617Z,10.10
2022-12-26T03:04:57.267Z,10.10
2022-12-26T03:07:53.309Z,10.00
2022-12-26T03:10:44.183Z,9.90
2022-12-26T03:13:25.550Z,9.90
2022-12-26T03:16:16.426Z,10.10
2022-12-26T03:18:58.071Z,10.00
2022-12-26T03:21:32.907Z,9.90
2022-12-26T03:24:00.256Z,9.90
2022-12-26T03:26:41.506Z,9.90
2022-12-26T03:29:41.300Z,9.80
2022-12-26T03:32:11.693Z,9.70
2022-12-26T03:34:42.808Z,9.80
2022-12-26T03:37:18.373Z,9.70
2022-12-26T03:40:24.924Z,9.50
2022-12-26T03:43:14.389Z,8.40
2022-12-26T03:46:27.675Z,7.80
2022-12-26T03:49:22.649Z,7.30
2022-12-26T03:52:34.311Z,7.00
2022-12-26T03:55:46.407Z,7.00
2022-12-26T03:58:38.248Z,6.90
2022-12-26T04:01:29.233Z,6.70
2022-12-26T04:04:16.434Z,6.90
2022-12-26T04:07:11.312Z,6.80
2022-12-26T04:10:19.554Z,6.80
2022-12-26T04:13:07.181Z,6.60
2022-12-26T04:16:10.571Z,6.40
2022-12-26T04:19:15.524Z,6.30
2022-12-26T04:22:11.593Z,6.30
2022-12-26T04:25:07.235Z,6.60
2022-12-26T04:27:53.079Z,6.60
2022-12-26T04:30:38.657Z,6.40
2022-12-26T04:33:36.584Z,6.20
2022-12-26T04:36:28.188Z,6.00
2022-12-26T04:39:19.387Z,6.40
2022-12-26T04:42:07.238Z,6.20
2022-12-26T04:44:35.974Z,6.40
2022-12-26T04:47:02.823Z,6.90
2022-12-26T04:49:48.027Z,6.10
2022-12-26T04:52:15.279Z,6.00
2022-12-26T04:54:42.387Z,6.10
2022-12-26T04:57:11.116Z,6.40
2022-12-26T04:59:37.831Z,6.20
2022-12-26T05:02:23.290Z,6.20
2022-12-26T05:05:08.909Z,6.10
2022-12-26T05:07:56.029Z,5.80
2022-12-26T05:10:28.163Z,5.80
2022-12-26T05:12:55.791Z,5.90
2022-12-26T05:15:23.329Z,5.90
2022-12-26T05:18:08.585Z,5.80
2022-12-26T05:20:47.251Z,5.80
2022-12-26T05:23:39.397Z,5.60
2022-12-26T05:26:28.138Z,4.40
2022-12-26T05:28:59.896Z,5.30
2022-12-26T05:31:32.927Z,5.40
2022-12-26T05:34:10.571Z,5.20
2022-12-26T05:36:49.857Z,5.10
2022-12-26T05:39:17.085Z,5.40
2022-12-26T05:41:43.980Z,5.40
2022-12-26T05:44:11.564Z,5.30
2022-12-26T05:46:38.992Z,5.10
2022-12-26T05:49:06.746Z,5.20
2022-12-26T05:51:33.932Z,5.00
2022-12-26T05:54:00.747Z,5.10
2022-12-26T05:56:27.515Z,4.90
2022-12-26T05:59:00.620Z,5.00
2022-12-26T06:01:29.232Z,4.90
2022-12-26T06:03:58.403Z,4.80
2022-12-26T06:06:26.315Z,4.70
2022-12-26T06:08:54.810Z,4.90
2022-12-26T06:11:23.021Z,4.80
2022-12-26T06:13:49.872Z,4.80
2022-12-26T06:16:18.014Z,4.70
2022-12-26T06:18:45.340Z,4.80
2022-12-26T06:21:14.925Z,4.80
2022-12-26T06:23:42.587Z,5.00
2022-12-26T06:26:10.431Z,5.00
2022-12-26T06:28:37.729Z,4.90
2022-12-26T06:31:16.707Z,5.00
2022-12-26T06:33:43.980Z,5.10
2022-12-26T06:36:13.752Z,5.00
2022-12-26T06:38:40.705Z,5.20
2022-12-26T06:41:09.738Z,5.10
2022-12-26T06:43:37.126Z,5.00
2022-12-26T06:46:06.263Z,5.00
2022-12-26T06:48:33.952Z,4.90
2022-12-26T06:51:09.197Z,5.00
2022-12-26T06:53:36.010Z,5.30
2022-12-26T06:56:07.648Z,5.00
2022-12-26T06:58:35.316Z,5.10
2022-12-26T07:01:11.550Z,4.80
2022-12-26T07:03:48.478Z,4.60
2022-12-26T07:06:24.029Z,4.50
2022-12-26T07:08:52.530Z,4.80
2022-12-26T07:11:25.711Z,4.70
2022-12-26T07:13:53.880Z,4.80
2022-12-26T07:16:20.702Z,4.70
2022-12-26T07:18:47.726Z,4.80
2022-12-26T07:21:16.076Z,4.70
2022-12-26T07:23:43.131Z,4.50
2022-12-26T07:26:10.231Z,4.50
2022-12-26T07:28:38.093Z,4.40
2022-12-26T07:31:05.842Z,4.50
2022-12-26T07:33:33.082Z,4.60
2022-12-26T07:36:05.037Z,4.80
2022-12-26T07:38:33.184Z,4.70
2022-12-26T07:41:00.035Z,4.60
2022-12-26T07:43:26.769Z,4.30
2022-12-26T07:45:57.753Z,4.40
2022-12-26T07:48:24.541Z,4.40
2022-12-26T07:50:52.102Z,4.20
2022-12-26T07:53:18.876Z,4.50
2022-12-26T07:55:45.587Z,4.40
2022-12-26T07:58:12.349Z,4.60
2022-12-26T08:00:39.128Z,4.50
2022-12-26T08:03:08.028Z,4.60
2022-12-26T08:05:35.690Z,4.60
2022-12-26T08:08:02.457Z,4.40
2022-12-26T08:10:29.213Z,4.20
2022-12-26T08:12:55.989Z,4.10
2022-12-26T08:15:22.731Z,4.20
2022-12-26T08:17:49.496Z,4.40
2022-12-26T08:20:16.309Z,4.50
2022-12-26T08:22:43.134Z,4.40
2022-12-26T08:25:10.234Z,4.70
2022-12-26T08:27:38.655Z,4.50
2022-12-26T08:30:05.776Z,4.60
2022-12-26T08:32:32.667Z,4.50
2022-12-26T08:34:59.448Z,4.60
2022-12-26T08:37:26.221Z,4.40
2022-12-26T08:39:53.665Z,4.20
2022-12-26T08:42:21.785Z,4.30
2022-12-26T08:44:48.973Z,4.40
2022-12-26T08:47:15.999Z,4.40
2022-12-26T08:49:43.585Z,4.70
2022-12-26T08:52:10.630Z,4.70
2022-12-26T08:54:37.969Z,4.50
2022-12-26T08:57:04.744Z,4.50
2022-12-26T08:59:31.580Z,4.50
2022-12-26T09:01:59.498Z,4.50
2022-12-26T09:04:27.138Z,4.50
2022-12-26T09:06:53.891Z,4.50
2022-12-26T09:09:20.854Z,4.70
2022-12-26T09:11:47.698Z,4.50
2022-12-26T09:14:14.595Z,4.60
2022-12-26T09:16:49.679Z,4.80
2022-12-26T09:19:18.389Z,4.70
2022-12-26T09:21:46.162Z,4.90
2022-12-26T09:24:16.185Z,5.00
2022-12-26T09:26:43.809Z,5.10
2022-12-26T09:29:12.338Z,5.10
2022-12-26T09:31:39.679Z,4.80
2022-12-26T09:34:07.554Z,4.90
2022-12-26T09:36:38.430Z,5.00
2022-12-26T09:39:06.176Z,4.70
2022-12-26T09:42:00.292Z,4.80
2022-12-26T09:44:51.786Z,4.90
2022-12-26T09:47:43.355Z,5.00
2022-12-26T09:50:10.258Z,5.10
2022-12-26T09:52:50.588Z,5.30
2022-12-26T09:55:38.878Z,5.40
2022-12-26T09:58:29.073Z,5.30
2022-12-26T10:01:10.017Z,5.50
2022-12-26T10:04:08.289Z,5.30
2022-12-26T10:06:45.380Z,5.50
2022-12-26T10:09:15.295Z,5.60
2022-12-26T10:12:03.895Z,5.70
2022-12-26T10:14:51.960Z,5.60
2022-12-26T10:17:36.648Z,5.50
2022-12-26T10:20:18.143Z,5.80
2022-12-26T10:22:51.018Z,5.90
2022-12-26T10:25:30.363Z,6.00
2022-12-26T10:28:02.070Z,6.00
2022-12-26T10:30:37.599Z,6.10
2022-12-26T10:33:16.740Z,6.10
2022-12-26T10:35:45.895Z,7.10
2022-12-26T10:38:29.820Z,6.40
2022-12-26T10:41:03.052Z,6.40
2022-12-26T10:43:34.743Z,6.50
2022-12-26T10:46:13.642Z,6.60
2022-12-26T10:48:40.579Z,6.70
2022-12-26T10:51:08.536Z,6.70
2022-12-26T10:53:40.243Z,6.50
2022-12-26T10:56:12.010Z,6.60
2022-12-26T10:58:43.544Z,6.50
2022-12-26T11:01:47.446Z,6.60
2022-12-26T11:04:53.123Z,6.70
2022-12-26T11:07:17.567Z,6.70
2022-12-26T11:09:48.023Z,6.60
2022-12-26T11:12:21.762Z,6.60
2022-12-26T11:14:48.951Z,6.70
2022-12-26T11:17:27.564Z,6.70
2022-12-26T11:20:31.092Z,6.90
2022-12-26T11:23:13.838Z,6.80
2022-12-26T11:25:52.723Z,6.90
2022-12-26T11:28:29.330Z,7.10
2022-12-26T11:30:56.953Z,7.00
2022-12-26T11:33:43.114Z,6.90
2022-12-26T11:36:22.368Z,7.00
2022-12-26T11:39:04.585Z,7.50
2022-12-26T11:41:36.781Z,7.60
2022-12-26T11:44:09.744Z,7.60
2022-12-26T11:46:44.674Z,8.00
2022-12-26T11:49:40.911Z,8.20
2022-12-26T11:52:30.044Z,8.20
2022-12-26T11:54:56.850Z,8.20
2022-12-26T11:57:32.424Z,8.60
2022-12-26T12:00:18.780Z,8.50
2022-12-26T12:02:46.330Z,8.90
2022-12-26T12:05:17.917Z,9.10
2022-12-26T12:08:12.093Z,9.30
2022-12-26T12:10:57.465Z,9.20
2022-12-26T12:13:49.178Z,9.40
2022-12-26T12:16:43.457Z,9.40
2022-12-26T12:19:20.968Z,9.70
2022-12-26T12:22:18.420Z,9.80
2022-12-26T12:25:03.952Z,9.20
2022-12-26T12:27:51.284Z,10.20
2022-12-26T12:30:26.968Z,9.30
2022-12-26T12:33:17.374Z,9.40
2022-12-26T12:35:44.086Z,9.90
2022-12-26T12:38:29.204Z,9.80
2022-12-26T12:41:21.564Z,9.70
2022-12-26T12:44:20.320Z,9.90
2022-12-26T12:47:35.204Z,9.60
2022-12-26T12:50:22.906Z,9.90
2022-12-26T12:53:13.661Z,10.00
2022-12-26T12:55:47.340Z,9.40
2022-12-26T12:58:17.374Z,9.80
2022-12-26T13:01:01.526Z,10.10
2022-12-26T13:03:48.664Z,10.10
2022-12-26T13:06:34.933Z,10.10
2022-12-26T13:09:18.572Z,10.40
2022-12-26T13:11:58.055Z,10.40
2022-12-26T13:14:47.902Z,10.40
2022-12-26T13:17:29.703Z,10.60
2022-12-26T13:20:03.239Z,10.60
2022-12-26T13:23:01.901Z,10.80
2022-12-26T13:25:36.380Z,10.80
2022-12-26T13:28:10.247Z,11.00
2022-12-26T13:30:37.875Z,10.70
2022-12-26T13:33:06.025Z,10.70
2022-12-26T13:35:59.211Z,10.90
2022-12-26T13:38:57.823Z,11.30
2022-12-26T13:41:45.267Z,11.30
2022-12-26T13:44:21.290Z,11.00
2022-12-26T13:46:48.077Z,10.70
2022-12-26T13:49:38.927Z,10.50
2022-12-26T13:52:11.762Z,10.40
2022-12-26T13:55:06.763Z,10.40
2022-12-26T13:57:44.163Z,11.20
2022-12-26T14:00:45.066Z,11.50
2022-12-26T14:03:22.571Z,10.40
2022-12-26T14:06:07.990Z,10.50
2022-12-26T14:08:48.479Z,10.50
2022-12-26T14:11:51.678Z,10.60
2022-12-26T14:14:33.738Z,11.10
2022-12-26T14:17:15.546Z,11.00
2022-12-26T14:19:54.793Z,10.90
2022-12-26T14:22:52.546Z,10.70
2022-12-26T14:25:27.879Z,10.10
2022-12-26T14:28:25.831Z,10.10
2022-12-26T14:31:24.630Z,10.00
2022-12-26T14:34:16.113Z,10.10
2022-12-26T14:37:11.034Z,10.20
2022-12-26T14:39:37.717Z,9.40
2022-12-26T14:42:26.147Z,9.40
2022-12-26T14:44:58.444Z,9.40
2022-12-26T14:47:45.923Z,9.40
2022-12-26T14:50:43.771Z,9.60
2022-12-26T14:53:28.386Z,9.70
2022-12-26T14:56:04.024Z,9.70
2022-12-26T14:58:43.706Z,9.50
2022-12-26T15:01:13.273Z,9.70
2022-12-26T15:04:17.484Z,9.90
2022-12-26T15:07:35.536Z,9.60
2022-12-26T15:10:31.502Z,9.30
2022-12-26T15:13:37.676Z,9.50
2022-12-26T15:16:21.439Z,9.10
2022-12-26T15:19:35.780Z,8.70
2022-12-26T15:22:26.990Z,8.80
2022-12-26T15:25:21.310Z,8.60
2022-12-26T15:27:57.514Z,8.30
2022-12-26T15:31:12.905Z,8.00
2022-12-26T15:33:44.479Z,7.90
2022-12-26T15:36:24.483Z,7.70
2022-12-26T15:38:59.064Z,7.70
2022-12-26T15:42:20.073Z,7.60
2022-12-26T15:45:28.420Z,7.40
2022-12-26T15:48:14.879Z,7.40
2022-12-26T15:51:35.900Z,7.30
2022-12-26T15:54:05.461Z,7.00
2022-12-26T15:56:50.405Z,7.00
2022-12-26T15:59:35.371Z,7.00
2022-12-26T16:02:10.124Z,7.00
2022-12-26T16:04:52.102Z,6.90
2022-12-26T16:07:30.869Z,6.90
2022-12-26T16:09:58.690Z,6.80
2022-12-26T16:12:25.634Z,6.90
2022-12-26T16:15:05.321Z,6.90
2022-12-26T16:17:32.455Z,6.80
2022-12-26T16:20:02.026Z,6.80
2022-12-26T16:22:43.708Z,6.70
2022-12-26T16:25:15.216Z,6.50
2022-12-26T16:27:43.694Z,6.60
2022-12-26T16:30:20.159Z,6.60
2022-12-26T16:32:47.524Z,6.50
2022-12-26T16:35:27.043Z,6.50
2022-12-26T16:38:01.100Z,6.40
2022-12-26T16:40:30.853Z,6.40
2022-12-26T16:42:59.597Z,6.20
2022-12-26T16:45:27.819Z,6.40
2022-12-26T16:47:55.283Z,6.30
2022-12-26T16:50:25.179Z,6.30
2022-12-26T16:53:15.385Z,6.10
2022-12-26T16:55:48.029Z,6.10
2022-12-26T16:58:23.274Z,6.20
2022-12-26T17:01:11.939Z,6.20
2022-12-26T17:03:58.496Z,6.20
2022-12-26T17:06:31.952Z,6.10
2022-12-26T17:09:08.754Z,6.00
2022-12-26T17:11:39.084Z,6.00
2022-12-26T17:14:16.685Z,6.20
2022-12-26T17:16:43.537Z,6.10
2022-12-26T17:19:19.188Z,5.80
2022-12-26T17:22:25.012Z,6.10
2022-12-26T17:24:52.439Z,5.90
2022-12-26T17:27:26.141Z,5.80
2022-12-26T17:29:55.876Z,5.60
2022-12-26T17:32:33.929Z,5.70
2022-12-26T17:35:13.244Z,5.70
2022-12-26T17:37:41.145Z,5.80
2022-12-26T17:40:08.050Z,5.60
2022-12-26T17:42:54.247Z,5.50
2022-12-26T17:45:26.894Z,5.50
2022-12-26T17:47:58.110Z,5.60
2022-12-26T17:50:31.095Z,5.60
2022-12-26T17:53:20.607Z,5.70
2022-12-26T17:55:47.505Z,5.80
2022-12-26T17:58:15.144Z,5.50
2022-12-26T18:00:43.795Z,5.80
2022-12-26T18:03:10.788Z,5.50
2022-12-26T18:05:38.308Z,5.60
2022-12-26T18:08:06.365Z,5.40
2022-12-26T18:10:37.386Z,5.50
2022-12-26T18:13:06.457Z,5.50
2022-12-26T18:15:33.492Z,5.40
2022-12-26T18:18:00.285Z,5.40
2022-12-26T18:20:29.536Z,5.50
2022-12-26T18:22:57.412Z,5.30
2022-12-26T18:25:25.871Z,5.30
2022-12-26T18:27:53.517Z,5.40
2022-12-26T18:30:25.342Z,5.30
2022-12-26T18:32:53.261Z,5.20
2022-12-26T18:35:20.869Z,5.50
2022-12-26T18:37:51.216Z,5.40
2022-12-26T18:40:33.085Z,5.40
2022-12-26T18:43:00.449Z,5.40
2022-12-26T18:45:27.658Z,5.10
2022-12-26T18:47:54.478Z,5.20
2022-12-26T18:50:21.587Z,5.10
2022-12-26T18:52:53.314Z,5.10
2022-12-26T18:55:21.789Z,5.30
2022-12-26T18:57:49.147Z,5.10
2022-12-26T19:00:18.006Z,5.10
2022-12-26T19:02:47.393Z,5.10
2022-12-26T19:05:27.355Z,5.20
2022-12-26T19:07:54.933Z,5.20
2022-12-26T19:10:24.215Z,5.10
2022-12-26T19:12:51.602Z,5.10
2022-12-26T19:15:18.833Z,5.30
2022-12-26T19:17:46.017Z,5.30
2022-12-26T19:20:21.560Z,5.30
2022-12-26T19:22:49.734Z,5.50
2022-12-26T19:25:17.801Z,5.20
2022-12-26T19:27:45.225Z,5.10
2022-12-26T19:30:12.832Z,5.20
2022-12-26T19:32:39.779Z,5.10
2022-12-26T19:35:07.318Z,6.00
2022-12-26T19:37:34.169Z,5.10
2022-12-26T19:40:01.106Z,5.00
2022-12-26T19:42:27.933Z,5.20
2022-12-26T19:44:54.857Z,6.00
2022-12-26T19:47:22.098Z,5.30
2022-12-26T19:49:48.884Z,5.50
2022-12-26T19:52:15.899Z,5.50
2022-12-26T19:54:42.861Z,5.40
2022-12-26T19:57:12.280Z,5.20
2022-12-26T19:59:39.276Z,5.30
2022-12-26T20:02:06.147Z,5.10
2022-12-26T20:04:33.102Z,5.10
2022-12-26T20:07:01.600Z,5.00
2022-12-26T20:09:28.707Z,5.10
2022-12-26T20:11:55.666Z,5.30
2022-12-26T20:14:26.324Z,5.10
2022-12-26T20:17:07.148Z,5.10
2022-12-26T20:19:35.416Z,5.10
2022-12-26T20:22:02.256Z,5.00
2022-12-26T20:24:29.162Z,5.00
2022-12-26T20:26:56.105Z,4.90
2022-12-26T20:29:23.078Z,5.40
2022-12-26T20:31:51.188Z,5.00
2022-12-26T20:34:19.193Z,4.90
2022-12-26T20:36:46.019Z,4.90
2022-12-26T20:39:16.115Z,4.90
2022-12-26T20:41:43.242Z,5.00
2022-12-26T20:44:13.605Z,4.90
2022-12-26T20:46:41.497Z,5.90
2022-12-26T20:49:10.352Z,4.80
2022-12-26T20:51:39.391Z,4.70
2022-12-26T20:54:11.034Z,4.60
2022-12-26T20:56:40.023Z,4.70
2022-12-26T20:59:07.626Z,4.90
2022-12-26T21:01:35.517Z,4.80
2022-12-26T21:04:02.479Z,4.90
2022-12-26T21:06:31.944Z,4.80
2022-12-26T21:08:59.181Z,4.70
2022-12-26T21:11:36.303Z,4.60
2022-12-26T21:14:07.221Z,4.50
2022-12-26T21:17:02.324Z,4.70
2022-12-26T21:19:30.536Z,4.70
2022-12-26T21:21:57.589Z,4.70
2022-12-26T21:24:31.818Z,4.70
2022-12-26T21:26:58.950Z,4.80
2022-12-26T21:29:31.758Z,4.70
2022-12-26T21:32:00.018Z,4.70
2022-12-26T21:34:29.842Z,4.70
2022-12-26T21:37:15.852Z,4.70
2022-12-26T21:39:43.532Z,4.80
2022-12-26T21:42:10.957Z,4.80
2022-12-26T21:44:38.172Z,4.80
2022-12-26T21:47:08.075Z,4.90
2022-12-26T21:49:35.922Z,4.90
2022-12-26T21:52:03.537Z,4.90
2022-12-26T21:54:49.568Z,4.80
2022-12-26T21:57:17.296Z,4.70
2022-12-26T21:59:56.798Z,4.80
2022-12-26T22:02:48.916Z,4.80
2022-12-26T22:05:17.531Z,4.90
2022-12-26T22:07:44.760Z,4.60
2022-12-26T22:10:31.206Z,4.80
2022-12-26T22:12:58.261Z,4.80
2022-12-26T22:15:43.914Z,4.90
2022-12-26T22:18:10.864Z,5.20
2022-12-26T22:20:37.971Z,5.00
2022-12-26T22:23:04.932Z,5.00
2022-12-26T22:25:31.661Z,4.90
2022-12-26T22:27:59.642Z,4.70
2022-12-26T22:30:26.486Z,4.80
2022-12-26T22:32:53.641Z,4.80
2022-12-26T22:35:21.498Z,4.70
2022-12-26T22:37:48.341Z,4.50
2022-12-26T22:40:15.194Z,4.70
2022-12-26T22:42:41.944Z,4.70
2022-12-26T22:45:09.241Z,4.80
2022-12-26T22:47:36.024Z,4.80
2022-12-26T22:50:02.924Z,4.80
2022-12-26T22:52:29.744Z,4.80
2022-12-26T22:54:56.714Z,4.90
2022-12-26T22:57:23.705Z,4.80
2022-12-26T23:02:37.554Z,4.80
2022-12-26T23:05:05.525Z,4.90
2022-12-26T23:07:32.944Z,4.80
2022-12-26T23:10:00.535Z,5.00
2022-12-26T23:12:45.886Z,4.80
2022-12-26T23:15:31.029Z,4.70
2022-12-26T23:18:27.570Z,4.70
2022-12-26T23:21:13.588Z,4.80
2022-12-26T23:23:40.635Z,4.80
2022-12-26T23:26:07.472Z,4.70
2022-12-26T23:28:52.693Z,4.80
2022-12-26T23:31:19.544Z,4.60
2022-12-26T23:33:46.370Z,4.60
2022-12-26T23:36:13.265Z,4.70
2022-12-26T23:38:40.109Z,4.70
2022-12-26T23:41:06.963Z,4.90
2022-12-26T23:43:33.772Z,4.90
2022-12-26T23:46:01.286Z,5.20
2022-12-26T23:48:28.243Z,5.00
2022-12-26T23:51:07.151Z,4.90
2022-12-26T23:53:34.577Z,4.90
2022-12-26T23:56:01.368Z,5.00
2022-12-26T23:58:28.672Z,5.00
